-1°C Temp
-1°C Dewpoint
100% Humidity
Temperature
10 KM/H
6 MPH
5 KTS
350°
Due North

Wind Speed
Mostly Scattered
Clouds
Pressure 1020.92 (hPa) - 30.15 (in)
Visibility 2.5 (mi) - 4.0 (km)

Current Conditions
LIMC
Location Malpensa 50(km)
Metar :LIMC 080650Z 35005KT 310V010 4000 R35R/1400D R17L/P1500N R35L/P1500N BR BCFG SCT035 M01/M01 Q1021 NOSIG
Sun 8th December 07:50 am

Airport
  Metar Aviation API Data Provided by https://www.checkwx.com/ PHP scripts by weather34.com ©2019